createdAt,value
2023-01-22T00:04:37.802Z,57.80
2023-01-22T00:09:39.600Z,57.60
2023-01-22T00:14:42.944Z,57.50
2023-01-22T00:19:44.952Z,57.40
2023-01-22T00:24:46.573Z,58.50
2023-01-22T00:29:48.834Z,57.50
2023-01-22T00:34:52.759Z,57.50
2023-01-22T00:39:54.625Z,58.40
2023-01-22T00:44:56.388Z,57.40
2023-01-22T00:49:58.290Z,57.60
2023-01-22T00:55:00.020Z,57.50
2023-01-22T01:00:01.867Z,57.50
2023-01-22T01:05:03.651Z,57.40
2023-01-22T01:10:05.597Z,57.50
2023-01-22T01:15:07.693Z,57.70
2023-01-22T01:20:10.003Z,57.60
2023-01-22T01:25:12.099Z,57.30
2023-01-22T01:30:14.101Z,57.20
2023-01-22T01:35:15.953Z,57.10
2023-01-22T01:40:18.051Z,57.10
2023-01-22T01:45:38.393Z,57.10
2023-01-22T01:50:41.964Z,57.10
2023-01-22T01:55:43.912Z,57.10
2023-01-22T02:06:05.980Z,58.10
2023-01-22T02:11:07.888Z,57.10
2023-01-22T02:16:11.939Z,57.10
2023-01-22T02:21:32.287Z,56.90
2023-01-22T02:26:34.533Z,56.80
2023-01-22T02:31:36.885Z,56.90
2023-01-22T02:36:39.719Z,56.80
2023-01-22T02:41:41.711Z,56.50
2023-01-22T02:46:43.410Z,56.30
2023-01-22T02:51:45.002Z,56.20
2023-01-22T02:56:46.821Z,56.10
2023-01-22T03:01:48.430Z,56.30
2023-01-22T03:06:50.099Z,56.10
2023-01-22T03:11:52.033Z,56.10
2023-01-22T03:17:12.951Z,56.00
2023-01-22T03:22:15.861Z,56.00
2023-01-22T03:27:17.982Z,56.10
2023-01-22T03:32:19.800Z,56.10
2023-01-22T03:37:21.405Z,56.00
2023-01-22T03:42:24.528Z,56.10
2023-01-22T03:47:26.206Z,56.10
2023-01-22T03:52:27.836Z,56.20
2023-01-22T03:57:30.475Z,56.10
2023-01-22T04:02:32.111Z,55.90
2023-01-22T04:07:33.846Z,55.90
2023-01-22T04:12:35.585Z,55.90
2023-01-22T04:17:37.155Z,56.00
2023-01-22T04:22:38.795Z,55.80
2023-01-22T04:27:40.524Z,55.90
2023-01-22T04:32:42.076Z,55.90
2023-01-22T04:37:43.831Z,55.80
2023-01-22T04:42:45.559Z,55.70
2023-01-22T06:05:18.943Z,55.60
2023-01-22T06:10:20.743Z,55.60
2023-01-22T06:15:22.464Z,55.70
2023-01-22T06:20:24.076Z,55.80
2023-01-22T06:25:25.699Z,55.50
2023-01-22T06:30:27.554Z,55.30
2023-01-22T06:35:29.160Z,54.90
2023-01-22T06:40:30.834Z,54.50
2023-01-22T06:45:32.679Z,54.20
2023-01-22T06:50:34.504Z,53.90
2023-01-22T06:55:36.080Z,53.70
2023-01-22T07:00:37.763Z,53.40
2023-01-22T07:05:39.511Z,53.20
2023-01-22T07:10:41.754Z,53.10
2023-01-22T07:15:43.595Z,53.00
2023-01-22T07:20:45.734Z,52.80
2023-01-22T07:25:47.543Z,52.90
2023-01-22T07:30:49.367Z,52.90
2023-01-22T07:35:55.455Z,53.00
2023-01-22T07:41:07.247Z,52.90
2023-01-22T07:46:13.203Z,52.80
2023-01-22T07:51:15.126Z,52.80
2023-01-22T07:56:19.026Z,52.70
2023-01-22T08:01:20.845Z,52.60
2023-01-22T08:06:22.593Z,52.50
2023-01-22T08:11:24.305Z,52.40
2023-01-22T08:16:26.027Z,52.20
2023-01-22T08:21:27.742Z,52.20
2023-01-22T08:26:30.077Z,52.10
2023-01-22T08:31:32.029Z,52.20
2023-01-22T08:36:33.641Z,52.40
2023-01-22T08:41:35.230Z,52.60
2023-01-22T08:46:40.538Z,51.70
2023-01-22T08:51:42.281Z,52.60
2023-01-22T08:56:43.924Z,52.90
2023-01-22T09:01:45.715Z,53.10
2023-01-22T09:06:47.437Z,53.10
2023-01-22T09:11:49.066Z,52.80
2023-01-22T09:16:50.731Z,52.70
2023-01-22T09:21:52.422Z,52.70
2023-01-22T09:26:54.088Z,52.80
2023-01-22T09:31:56.312Z,53.00
2023-01-22T09:36:59.643Z,54.00
2023-01-22T09:42:02.645Z,53.00
2023-01-22T09:47:04.251Z,52.80
2023-01-22T09:52:06.597Z,52.60
2023-01-22T09:57:14.858Z,52.30
2023-01-22T10:02:42.486Z,52.30
2023-01-22T10:07:49.111Z,52.40
2023-01-22T10:13:09.421Z,52.60
2023-01-22T10:18:33.288Z,52.80
2023-01-22T10:23:34.969Z,52.80
2023-01-22T10:28:36.553Z,52.70
2023-01-22T10:33:44.603Z,52.60
2023-01-22T10:38:46.808Z,52.30
2023-01-22T10:43:48.806Z,52.30
2023-01-22T10:48:59.961Z,52.30
2023-01-22T10:54:01.771Z,52.50
2023-01-22T10:59:05.572Z,52.70
2023-01-22T11:04:14.019Z,52.70
2023-01-22T11:09:21.966Z,53.10
2023-01-22T11:14:26.092Z,58.40
2023-01-22T11:19:37.275Z,54.90
2023-01-22T11:24:47.277Z,54.00
2023-01-22T11:29:58.556Z,53.80
2023-01-22T11:35:10.584Z,53.50
2023-01-22T11:40:12.311Z,53.30
2023-01-22T11:45:20.932Z,53.20
2023-01-22T11:50:28.721Z,53.30
2023-01-22T11:55:46.816Z,53.40
2023-01-22T12:00:58.859Z,54.10
2023-01-22T12:06:20.769Z,54.20
2023-01-22T12:11:25.437Z,54.30
2023-01-22T12:16:53.678Z,54.30
2023-01-22T12:21:55.486Z,54.30
2023-01-22T12:27:02.718Z,54.20
2023-01-22T12:32:09.338Z,54.00
2023-01-22T12:37:13.954Z,53.80
2023-01-22T12:42:24.745Z,54.10
2023-01-22T12:47:38.189Z,53.90
2023-01-22T12:52:40.960Z,54.20
2023-01-22T12:57:42.648Z,54.30
2023-01-22T13:02:44.367Z,54.20
2023-01-22T13:07:46.859Z,54.20
2023-01-22T13:12:50.081Z,54.00
2023-01-22T13:18:06.189Z,53.90
2023-01-22T13:23:12.011Z,53.80
2023-01-22T13:28:17.258Z,53.90
2023-01-22T13:33:19.074Z,54.10
2023-01-22T13:38:20.748Z,54.20
2023-01-22T13:43:23.007Z,54.40
2023-01-22T13:48:25.906Z,54.40
2023-01-22T13:53:31.775Z,54.40
2023-01-22T13:58:49.496Z,54.30
2023-01-22T14:03:57.906Z,54.20
2023-01-22T14:08:59.620Z,54.00
2023-01-22T14:14:01.299Z,54.10
2023-01-22T14:19:02.940Z,54.20
2023-01-22T14:24:04.820Z,54.30
2023-01-22T14:29:07.017Z,54.30
2023-01-22T14:34:11.247Z,54.10
2023-01-22T14:39:12.989Z,53.90
2023-01-22T14:44:14.746Z,53.70
2023-01-22T14:49:16.987Z,53.40
2023-01-22T14:54:18.648Z,53.40
2023-01-22T14:59:21.016Z,53.50
2023-01-22T15:04:22.689Z,53.70
2023-01-22T15:09:24.660Z,53.70
2023-01-22T15:14:26.363Z,53.70
2023-01-22T15:19:30.607Z,53.50
2023-01-22T15:24:33.885Z,53.40
2023-01-22T15:29:36.052Z,53.10
2023-01-22T15:34:37.925Z,53.00
2023-01-22T15:39:39.801Z,53.00
2023-01-22T15:44:41.741Z,53.30
2023-01-22T15:49:43.681Z,53.30
2023-01-22T15:54:46.634Z,53.40
2023-01-22T15:59:48.427Z,53.40
2023-01-22T16:04:50.279Z,53.20
2023-01-22T16:09:51.947Z,53.00
2023-01-22T16:14:53.744Z,53.00
2023-01-22T16:19:55.471Z,53.10
2023-01-22T16:24:57.037Z,53.20
2023-01-22T16:29:59.206Z,53.50
2023-01-22T16:35:00.893Z,54.00
2023-01-22T16:40:03.384Z,55.00
2023-01-22T16:45:05.129Z,55.10
2023-01-22T16:50:07.048Z,54.90
2023-01-22T16:55:09.011Z,54.60
2023-01-22T17:00:11.530Z,54.50
2023-01-22T17:05:13.815Z,53.90
2023-01-22T17:10:15.608Z,53.90
2023-01-22T17:15:18.405Z,55.00
2023-01-22T17:20:20.451Z,57.20
2023-01-22T17:25:22.352Z,61.20
2023-01-22T17:30:24.054Z,62.50
2023-01-22T17:35:25.601Z,59.50
2023-01-22T17:40:27.640Z,58.70
2023-01-22T17:45:29.423Z,58.30
2023-01-22T17:50:30.984Z,58.00
2023-01-22T17:55:32.887Z,57.90
2023-01-22T18:00:36.723Z,57.70
2023-01-22T18:05:38.436Z,57.50
2023-01-22T18:10:40.009Z,57.40
2023-01-22T18:15:45.508Z,57.30
2023-01-22T18:20:47.603Z,57.20
2023-01-22T18:25:50.506Z,56.90
2023-01-22T18:30:52.673Z,56.60
2023-01-22T18:35:54.515Z,56.50
2023-01-22T18:40:56.800Z,56.40
2023-01-22T18:46:02.715Z,56.10
2023-01-22T18:51:05.840Z,56.00
2023-01-22T18:56:08.578Z,56.00
2023-01-22T19:01:11.897Z,55.90
2023-01-22T19:06:16.060Z,55.80
2023-01-22T19:11:18.015Z,56.90
2023-01-22T19:16:22.273Z,56.50
2023-01-22T19:21:24.920Z,56.10
2023-01-22T19:26:34.310Z,56.00
2023-01-22T19:31:43.888Z,56.00
2023-01-22T19:36:45.758Z,56.00
2023-01-22T19:41:47.463Z,55.90
2023-01-22T19:46:49.140Z,55.70
2023-01-22T19:51:51.011Z,55.50
2023-01-22T19:56:53.426Z,55.40
2023-01-22T20:01:55.420Z,55.10
2023-01-22T20:06:58.614Z,55.20
2023-01-22T20:12:00.601Z,55.30
2023-01-22T20:17:02.645Z,55.60
2023-01-22T20:22:07.019Z,55.70
2023-01-22T20:27:08.896Z,55.70
2023-01-22T20:32:10.804Z,55.70
2023-01-22T20:37:12.368Z,55.70
2023-01-22T20:42:13.954Z,55.70
2023-01-22T20:47:15.895Z,55.70
2023-01-22T20:52:17.843Z,55.80
2023-01-22T20:57:20.588Z,56.00
2023-01-22T21:02:22.599Z,56.10
2023-01-22T21:07:24.288Z,56.10
2023-01-22T21:12:27.499Z,55.90
2023-01-22T21:17:29.055Z,56.00
2023-01-22T21:22:30.594Z,56.10
2023-01-22T21:27:32.361Z,56.40
2023-01-22T21:32:34.133Z,60.40
2023-01-22T21:37:35.721Z,60.40
2023-01-22T21:42:56.001Z,61.20
2023-01-22T21:47:57.928Z,60.00
2023-01-22T21:52:59.499Z,60.00
2023-01-22T21:58:01.081Z,60.00
2023-01-22T22:03:02.978Z,60.00
2023-01-22T22:08:04.695Z,60.00
2023-01-22T22:13:06.472Z,59.90
2023-01-22T22:18:08.121Z,59.90
2023-01-22T22:23:09.861Z,59.90
2023-01-22T22:28:11.794Z,59.90
2023-01-22T22:33:13.547Z,59.90
2023-01-22T22:38:15.116Z,60.00
2023-01-22T22:43:17.067Z,59.80
2023-01-22T22:48:19.760Z,59.70
2023-01-22T22:53:21.332Z,59.80
2023-01-22T22:58:22.944Z,59.80
2023-01-22T23:03:24.942Z,59.70
2023-01-22T23:08:26.507Z,59.70
2023-01-22T23:13:28.528Z,59.50
2023-01-22T23:18:30.291Z,59.40
2023-01-22T23:23:32.036Z,59.50
2023-01-22T23:28:33.727Z,59.50
2023-01-22T23:33:35.938Z,59.30
2023-01-22T23:38:37.683Z,59.50
2023-01-22T23:43:39.791Z,59.20
2023-01-22T23:48:41.782Z,59.20
2023-01-22T23:53:44.824Z,59.00
2023-01-22T23:58:47.119Z,59.20
